Time;durP1;ratioP1;P1;durP2;ratioP2;P2;SDS_P1;SDS_P2;PMS_P1;PMS_P2;Temp;Humidity;BMP_temperature;BMP_pressure;BME280_temperature;BME280_humidity;BME280_pressure;Samples;Min_cycle;Max_cycle;Signal;HPM_P1;HPM_P2
2024/02/28 00:02:19;;;;;;;16.10;7.93;;;12.90;89.40;;;;;;5111069;28;20464;-75
2024/02/28 00:04:47;;;;;;;12.68;6.85;;;12.80;89.90;;;;;;5104066;28;20181;-71
2024/02/28 00:07:15;;;;;;;12.23;7.22;;;12.80;89.90;;;;;;5106968;28;20039;-74
2024/02/28 00:09:42;;;;;;;12.50;7.65;;;12.90;89.80;;;;;;5102659;28;20039;-74
2024/02/28 00:12:10;;;;;;;15.57;7.40;;;12.90;89.90;;;;;;5089455;28;20044;-75
2024/02/28 00:14:37;;;;;;;11.88;7.57;;;12.60;90.40;;;;;;5100524;28;20399;-73
2024/02/28 00:17:04;;;;;;;11.90;7.38;;;12.60;90.50;;;;;;5108554;28;20441;-72
2024/02/28 00:19:32;;;;;;;12.02;7.63;;;12.70;90.30;;;;;;5105902;28;20056;-71
2024/02/28 00:22:01;;;;;;;16.33;7.38;;;12.60;90.50;;;;;;5106652;28;20035;-76
2024/02/28 00:24:29;;;;;;;13.30;7.38;;;12.60;90.50;;;;;;5090624;28;20146;-73
2024/02/28 00:26:57;;;;;;;15.45;8.07;;;12.60;90.50;;;;;;5098235;28;20118;-75
2024/02/28 00:29:24;;;;;;;11.82;7.60;;;12.50;90.30;;;;;;5097637;28;20047;-74
2024/02/28 00:31:51;;;;;;;11.68;7.55;;;12.40;90.70;;;;;;5088790;28;20038;-75
2024/02/28 00:34:19;;;;;;;15.27;8.55;;;12.30;90.80;;;;;;5105269;27;20430;-72
2024/02/28 00:36:46;;;;;;;12.48;7.93;;;12.30;91.00;;;;;;5101815;28;20093;-74
2024/02/28 00:39:22;;;;;;;11.55;7.43;;;12.30;91.00;;;;;;5101911;28;20103;-71
2024/02/28 00:41:50;;;;;;;11.45;7.35;;;12.30;91.00;;;;;;5105887;28;20062;-73
2024/02/28 00:44:17;;;;;;;12.00;8.02;;;12.30;91.10;;;;;;5104458;28;20043;-70
2024/02/28 00:46:45;;;;;;;14.18;8.00;;;12.30;91.10;;;;;;5098511;28;20040;-73
2024/02/28 00:49:12;;;;;;;12.48;7.18;;;12.20;91.60;;;;;;5100954;28;20399;-72
2024/02/28 00:51:39;;;;;;;9.80;7.70;;;12.10;91.30;;;;;;5102959;28;20039;-72
2024/02/28 00:54:08;;;;;;;12.98;7.43;;;11.90;91.90;;;;;;5103048;28;20126;-74
2024/02/28 00:56:35;;;;;;;10.73;8.00;;;12.00;92.00;;;;;;5101528;28;20112;-74
2024/02/28 00:59:02;;;;;;;12.00;7.13;;;11.90;91.90;;;;;;5108442;28;20056;-75
2024/02/28 01:01:30;;;;;;;13.32;7.93;;;12.00;92.00;;;;;;5094921;28;20048;-75
2024/02/28 01:03:57;;;;;;;10.68;7.90;;;12.00;92.00;;;;;;5107514;28;20513;-75
2024/02/28 01:06:24;;;;;;;12.02;7.75;;;12.00;92.00;;;;;;5102012;28;20033;-70
2024/02/28 01:08:52;;;;;;;14.30;8.77;;;12.10;92.00;;;;;;5106372;28;20046;-73
2024/02/28 01:11:19;;;;;;;11.23;7.43;;;12.20;91.90;;;;;;5099768;28;20047;-73
2024/02/28 01:13:47;;;;;;;11.20;7.50;;;12.20;91.70;;;;;;5109551;28;20380;-71
2024/02/28 01:16:16;;;;;;;10.93;7.40;;;12.20;91.80;;;;;;5103017;28;20368;-74
2024/02/28 01:18:44;;;;;;;10.80;7.80;;;12.20;91.90;;;;;;5102192;28;20043;-74
2024/02/28 01:21:11;;;;;;;15.18;7.82;;;12.30;92.10;;;;;;5102239;28;20138;-71
2024/02/28 01:23:38;;;;;;;12.30;8.25;;;12.40;91.80;;;;;;5107518;28;20093;-71
2024/02/28 01:26:06;;;;;;;12.68;7.97;;;12.40;91.90;;;;;;5109292;28;20062;-72
2024/02/28 01:28:33;;;;;;;12.45;7.60;;;12.30;91.70;;;;;;5107391;28;20035;-72
2024/02/28 01:31:01;;;;;;;13.30;8.05;;;12.10;92.10;;;;;;5102309;28;20047;-71
2024/02/28 01:33:28;;;;;;;10.40;8.25;;;12.20;92.40;;;;;;5107880;27;20035;-71
2024/02/28 01:35:55;;;;;;;13.55;7.82;;;12.30;92.40;;;;;;5105221;28;20061;-71
2024/02/28 01:38:26;;;;;;;12.80;8.10;;;12.40;92.20;;;;;;5107912;28;20044;-71
2024/02/28 01:40:54;;;;;;;13.98;8.18;;;12.50;92.10;;;;;;5104140;28;20028;-73
2024/02/28 01:43:21;;;;;;;13.50;8.18;;;12.50;92.10;;;;;;5107219;28;20442;-74
2024/02/28 01:45:48;;;;;;;14.27;8.70;;;12.60;92.10;;;;;;5107755;28;20032;-72
2024/02/28 01:48:16;;;;;;;16.75;7.90;;;12.50;92.20;;;;;;5108552;28;20046;-73
2024/02/28 01:50:44;;;;;;;15.85;7.85;;;12.40;92.10;;;;;;5108101;28;20039;-71
2024/02/28 01:53:13;;;;;;;14.13;8.02;;;12.30;92.50;;;;;;5100808;28;20044;-72
2024/02/28 01:55:42;;;;;;;12.90;9.20;;;12.20;92.30;;;;;;5105740;28;20028;-72
2024/02/28 01:58:09;;;;;;;14.93;9.68;;;12.00;92.40;;;;;;5110843;28;20047;-72
2024/02/28 02:00:37;;;;;;;15.40;9.23;;;11.90;92.70;;;;;;5104094;28;20040;-73
2024/02/28 02:03:05;;;;;;;15.82;9.63;;;11.90;93.00;;;;;;5102601;28;20614;-71
2024/02/28 02:05:32;;;;;;;17.05;9.57;;;11.90;93.30;;;;;;5112195;28;20032;-71
2024/02/28 02:08:02;;;;;;;12.63;8.88;;;11.90;93.10;;;;;;5109054;28;20399;-71
2024/02/28 02:10:30;;;;;;;15.32;8.68;;;11.90;93.00;;;;;;5107218;28;20123;-71
2024/02/28 02:13:07;;;;;;;16.60;9.55;;;11.90;92.90;;;;;;5086577;28;20052;-71
2024/02/28 02:15:34;;;;;;;13.35;8.98;;;11.90;93.20;;;;;;5106629;28;20046;-71
2024/02/28 02:18:02;;;;;;;14.73;8.88;;;11.80;93.30;;;;;;5103149;28;20411;-69
2024/02/28 02:20:35;;;;;;;18.10;8.98;;;11.80;93.10;;;;;;5091349;28;20043;-71
2024/02/28 02:23:03;;;;;;;16.17;8.48;;;11.60;93.20;;;;;;5105536;28;20414;-71
2024/02/28 02:25:30;;;;;;;10.80;8.02;;;11.60;93.30;;;;;;5104255;28;20105;-73
2024/02/28 02:27:57;;;;;;;17.42;8.55;;;11.40;93.70;;;;;;5111138;28;20453;-71
2024/02/28 02:30:25;;;;;;;13.68;8.85;;;11.50;93.70;;;;;;5097484;28;20406;-71
2024/02/28 02:32:52;;;;;;;15.07;9.13;;;11.50;93.60;;;;;;5087646;28;20040;-70
2024/02/28 02:35:19;;;;;;;12.73;8.88;;;11.50;93.70;;;;;;5109374;28;20038;-72
2024/02/28 02:37:48;;;;;;;15.27;9.00;;;11.50;93.90;;;;;;5103995;28;20050;-71
2024/02/28 02:40:15;;;;;;;17.42;9.30;;;11.60;93.80;;;;;;5086761;28;20036;-70
2024/02/28 02:42:43;;;;;;;11.55;8.38;;;11.60;93.50;;;;;;5111299;28;20038;-70
2024/02/28 02:45:10;;;;;;;15.55;9.25;;;11.70;93.50;;;;;;5106440;28;20040;-70
2024/02/28 02:47:37;;;;;;;13.02;8.73;;;11.70;93.80;;;;;;5113675;27;20047;-71
2024/02/28 02:50:06;;;;;;;14.02;8.43;;;11.70;93.60;;;;;;5109189;28;20047;-70
2024/02/28 02:52:34;;;;;;;12.95;8.52;;;11.70;93.50;;;;;;5107880;28;20052;-71
2024/02/28 02:55:02;;;;;;;12.40;8.77;;;11.70;93.50;;;;;;5109568;28;20063;-71
2024/02/28 02:57:31;;;;;;;16.60;9.55;;;11.60;93.40;;;;;;5111027;28;20043;-71
2024/02/28 02:59:58;;;;;;;14.93;9.85;;;11.50;93.70;;;;;;5104543;28;20040;-70
2024/02/28 03:02:25;;;;;;;16.73;9.00;;;11.50;93.50;;;;;;5109182;28;20441;-71
2024/02/28 03:04:53;;;;;;;15.50;9.27;;;11.50;93.70;;;;;;5108370;28;20118;-70
2024/02/28 03:07:20;;;;;;;11.43;8.40;;;11.40;93.50;;;;;;5112063;28;20035;-71
2024/02/28 03:09:47;;;;;;;12.80;9.23;;;11.40;93.70;;;;;;5106056;28;20169;-72
2024/02/28 03:12:15;;;;;;;13.85;8.60;;;11.50;93.50;;;;;;5110464;28;20042;-72
2024/02/28 03:14:42;;;;;;;13.98;9.27;;;11.40;93.60;;;;;;5106917;28;20566;-72
2024/02/28 03:17:09;;;;;;;14.10;9.02;;;11.40;93.80;;;;;;5108487;28;20062;-73
2024/02/28 03:19:37;;;;;;;13.48;9.25;;;11.50;93.80;;;;;;5092693;28;20101;-72
2024/02/28 03:22:04;;;;;;;16.30;9.52;;;11.50;93.60;;;;;;5107202;28;20660;-71
2024/02/28 03:24:35;;;;;;;15.30;9.65;;;11.30;93.80;;;;;;5107540;28;20040;-71
2024/02/28 03:27:02;;;;;;;;;;;11.10;94.50;;;;;;5092071;28;20043;-72
2024/02/28 03:29:30;;;;;;;13.98;9.57;;;11.10;94.40;;;;;;5107860;28;19972;-74
2024/02/28 03:31:58;;;;;;;12.45;8.70;;;11.10;94.50;;;;;;5091394;28;20039;-74
2024/02/28 03:34:26;;;;;;;14.10;9.85;;;11.30;94.40;;;;;;5076500;28;20478;-70
2024/02/28 03:36:53;;;;;;;16.95;10.57;;;11.20;94.40;;;;;;5103721;28;20039;-72
2024/02/28 03:39:21;;;;;;;14.20;9.75;;;11.10;94.20;;;;;;5109098;28;20039;-72
2024/02/28 03:41:49;;;;;;;16.08;11.20;;;11.00;94.50;;;;;;5110056;28;20040;-73
2024/02/28 03:44:16;;;;;;;20.20;10.38;;;11.10;94.40;;;;;;5091644;28;20043;-74
2024/02/28 03:46:43;;;;;;;18.85;12.48;;;11.00;94.60;;;;;;5104986;28;20059;-72
2024/02/28 03:49:11;;;;;;;18.90;11.48;;;11.00;94.70;;;;;;5106338;28;20036;-72
2024/02/28 03:51:41;;;;;;;16.13;12.07;;;11.00;94.50;;;;;;5109978;28;20050;-73
2024/02/28 03:54:09;;;;;;;21.02;14.02;;;11.00;94.80;;;;;;5107156;28;20051;-78
2024/02/28 03:56:36;;;;;;;21.80;14.35;;;10.90;94.90;;;;;;5106683;28;20063;-72
2024/02/28 03:59:04;;;;;;;15.32;11.27;;;11.00;94.60;;;;;;5110087;28;20110;-70
2024/02/28 04:01:31;;;;;;;18.85;12.60;;;11.20;94.40;;;;;;5103951;28;20040;-71
2024/02/28 04:03:58;;;;;;;20.77;13.18;;;11.10;94.50;;;;;;5106035;28;20063;-71
2024/02/28 04:06:25;;;;;;;17.13;13.10;;;11.20;94.40;;;;;;5090722;28;20047;-73
2024/02/28 04:08:53;;;;;;;22.73;14.98;;;11.30;94.00;;;;;;5107693;28;20039;-71
2024/02/28 04:11:20;;;;;;;23.27;13.95;;;11.10;93.90;;;;;;5108037;28;20063;-71
2024/02/28 04:13:48;;;;;;;19.90;13.75;;;11.10;94.40;;;;;;5091451;28;20062;-70
2024/02/28 04:16:15;;;;;;;19.48;12.57;;;11.10;94.30;;;;;;5103224;28;20040;-72
2024/02/28 04:18:43;;;;;;;19.10;12.63;;;11.00;94.40;;;;;;5108393;28;20063;-71
2024/02/28 04:21:10;;;;;;;21.95;12.98;;;11.00;94.60;;;;;;5087532;28;20052;-71
2024/02/28 04:23:38;;;;;;;17.38;12.93;;;11.20;94.50;;;;;;5109388;28;20039;-69
2024/02/28 04:26:05;;;;;;;17.38;12.73;;;11.20;94.40;;;;;;5106541;28;20066;-71
2024/02/28 04:28:32;;;;;;;16.02;11.85;;;11.30;94.40;;;;;;5088337;28;20450;-73
2024/02/28 04:31:00;;;;;;;18.27;12.98;;;11.20;94.40;;;;;;5103538;28;20039;-73
2024/02/28 04:33:27;;;;;;;20.45;12.48;;;11.20;94.50;;;;;;5107048;28;20055;-72
2024/02/28 04:35:55;;;;;;;24.23;13.50;;;11.30;94.60;;;;;;5110293;28;20106;-72
2024/02/28 04:38:22;;;;;;;23.02;14.35;;;11.30;94.40;;;;;;5086374;28;20044;-72
2024/02/28 04:40:50;;;;;;;19.40;13.10;;;10.90;94.90;;;;;;5091436;28;20062;-71
2024/02/28 04:43:17;;;;;;;16.33;12.60;;;10.70;95.40;;;;;;5105062;28;20047;-71
2024/02/28 04:45:45;;;;;;;19.98;12.73;;;10.80;95.50;;;;;;5103181;28;20513;-71
2024/02/28 04:48:12;;;;;;;20.60;13.52;;;10.90;95.40;;;;;;5089124;28;20085;-69
2024/02/28 04:50:40;;;;;;;17.88;12.57;;;11.00;95.20;;;;;;5106419;28;20042;-72
2024/02/28 04:53:08;;;;;;;22.70;12.85;;;11.10;94.80;;;;;;5109098;28;20055;-70
2024/02/28 04:55:36;;;;;;;16.75;12.77;;;11.10;94.60;;;;;;5104508;28;20071;-71
2024/02/28 04:58:03;;;;;;;21.25;13.38;;;10.80;95.30;;;;;;5093717;28;20044;-71
2024/02/28 05:00:30;;;;;;;20.65;13.10;;;10.60;95.80;;;;;;5109171;28;20395;-74
2024/02/28 05:02:58;;;;;;;18.33;12.55;;;10.60;95.80;;;;;;5113145;28;20490;-71
2024/02/28 05:05:25;;;;;;;23.35;12.70;;;10.90;95.50;;;;;;5115249;28;20180;-71
2024/02/28 05:07:52;;;;;;;17.50;12.43;;;11.10;95.00;;;;;;5113801;28;20069;-71
2024/02/28 05:10:20;;;;;;;19.75;12.57;;;11.20;94.70;;;;;;5094738;28;20134;-73
2024/02/28 05:12:48;;;;;;;22.83;13.23;;;11.10;94.70;;;;;;5113891;28;20483;-71
2024/02/28 05:15:16;;;;;;;18.75;12.68;;;10.80;95.20;;;;;;5112211;28;20039;-72
2024/02/28 05:17:44;;;;;;;21.88;12.85;;;10.60;95.60;;;;;;5111106;27;20380;-73
2024/02/28 05:20:12;;;;;;;22.08;13.18;;;10.50;96.20;;;;;;5115042;28;20512;-72
2024/02/28 05:22:42;;;;;;;20.10;13.25;;;10.60;95.90;;;;;;5111779;27;20114;-72
2024/02/28 05:25:09;;;;;;;19.80;13.32;;;10.60;95.90;;;;;;5095164;28;20051;-71
2024/02/28 05:27:36;;;;;;;17.65;12.77;;;10.70;96.10;;;;;;5095221;28;20527;-72
2024/02/28 05:30:05;;;;;;;19.90;12.80;;;10.50;96.10;;;;;;5115522;27;20113;-70
2024/02/28 05:32:33;;;;;;;17.17;12.38;;;10.50;96.30;;;;;;5091912;28;20394;-73
2024/02/28 05:35:00;;;;;;;23.05;13.00;;;10.60;96.30;;;;;;5112339;28;20043;-71
2024/02/28 05:37:28;;;;;;;21.98;12.57;;;10.60;96.20;;;;;;5109671;28;20120;-73
2024/02/28 05:39:55;;;;;;;18.48;12.30;;;10.60;96.10;;;;;;5108338;28;20040;-70
2024/02/28 05:42:23;;;;;;;23.20;12.82;;;10.60;96.20;;;;;;5111271;28;20086;-71
2024/02/28 05:44:51;;;;;;;23.98;13.40;;;10.70;96.20;;;;;;5085285;28;20077;-73
2024/02/28 05:47:19;;;;;;;17.52;12.30;;;10.70;96.10;;;;;;5084532;28;20040;-72
2024/02/28 05:49:52;;;;;;;18.55;12.52;;;10.80;96.00;;;;;;5110420;28;20044;-71
2024/02/28 05:52:20;;;;;;;19.25;13.15;;;11.00;95.70;;;;;;5106672;28;20048;-74
2024/02/28 05:54:48;;;;;;;21.98;12.75;;;11.10;95.40;;;;;;5088211;27;20100;-71
2024/02/28 05:57:15;;;;;;;14.70;11.77;;;11.10;95.40;;;;;;5107519;28;20589;-72
2024/02/28 05:59:43;;;;;;;20.05;12.15;;;11.10;95.10;;;;;;5110082;28;20035;-71
2024/02/28 06:02:13;;;;;;;26.17;12.43;;;11.00;95.60;;;;;;5107728;28;20391;-73
2024/02/28 06:04:41;;;;;;;16.92;11.07;;;11.30;95.20;;;;;;5107141;27;20035;-73
2024/02/28 06:07:09;;;;;;;18.17;12.02;;;11.30;95.00;;;;;;5115184;28;20100;-71
2024/02/28 06:09:36;;;;;;;17.20;11.60;;;11.50;94.80;;;;;;5084536;28;20032;-71
2024/02/28 06:12:04;;;;;;;17.13;12.68;;;11.60;94.50;;;;;;5103927;28;20040;-71
2024/02/28 06:14:31;;;;;;;22.25;12.52;;;11.50;94.60;;;;;;5101345;28;20055;-71
2024/02/28 06:16:58;;;;;;;20.08;13.07;;;11.60;95.00;;;;;;5107799;28;20054;-70
2024/02/28 06:19:26;;;;;;;68.63;40.13;;;11.80;94.80;;;;;;5089453;28;20071;-72
2024/02/28 06:21:53;;;;;;;23.15;16.00;;;12.00;94.50;;;;;;5106449;28;20063;-71
2024/02/28 06:24:21;;;;;;;38.35;23.70;;;11.70;94.00;;;;;;5106045;28;20505;-70
2024/02/28 06:26:48;;;;;;;66.93;38.65;;;11.70;94.80;;;;;;5109466;28;20055;-70
2024/02/28 06:29:16;;;;;;;26.88;16.90;;;12.10;94.60;;;;;;5074287;28;20051;-70
2024/02/28 06:31:43;;;;;;;18.77;13.57;;;12.00;94.20;;;;;;5087959;28;20051;-71
2024/02/28 06:34:10;;;;;;;23.17;15.27;;;11.60;94.30;;;;;;5086719;28;20043;-71
2024/02/28 06:36:40;;;;;;;26.15;15.82;;;11.90;95.00;;;;;;5084253;28;20045;-69
2024/02/28 06:39:08;;;;;;;18.63;12.75;;;12.50;94.10;;;;;;5106740;28;20050;-69
2024/02/28 06:41:35;;;;;;;27.15;14.60;;;12.20;93.20;;;;;;5111242;28;20792;-71
2024/02/28 06:44:03;;;;;;;22.90;13.57;;;11.80;94.20;;;;;;5105500;28;20471;-70
2024/02/28 06:46:31;;;;;;;22.63;13.88;;;12.30;94.20;;;;;;5090405;28;20176;-70
2024/02/28 06:48:59;;;;;;;24.77;14.18;;;12.50;93.70;;;;;;5071205;28;20506;-70
2024/02/28 06:51:26;;;;;;;26.65;14.55;;;12.70;93.60;;;;;;5110587;28;20047;-72
2024/02/28 06:53:54;;;;;;;28.17;14.32;;;12.70;93.20;;;;;;5100760;28;20149;-72
2024/02/28 06:56:22;;;;;;;28.33;14.57;;;12.70;93.10;;;;;;5079132;28;20118;-71
2024/02/28 06:58:50;;;;;;;26.92;15.27;;;12.60;93.10;;;;;;5096898;28;20415;-72
2024/02/28 07:01:18;;;;;;;23.33;14.73;;;12.40;93.40;;;;;;5091427;28;20698;-73
2024/02/28 07:03:47;;;;;;;24.13;14.98;;;12.40;93.70;;;;;;5080198;28;20122;-71
2024/02/28 07:06:14;;;;;;;22.63;14.93;;;12.40;93.70;;;;;;5079135;28;20068;-72
2024/02/28 07:08:42;;;;;;;28.42;15.80;;;12.60;93.50;;;;;;5057008;28;20064;-72
2024/02/28 07:11:16;;;;;;;25.80;15.05;;;12.80;93.20;;;;;;5092917;28;20044;-72
2024/02/28 07:13:43;;;;;;;29.00;15.30;;;13.10;92.90;;;;;;5082028;28;20040;-72
2024/02/28 07:16:10;;;;;;;21.88;14.88;;;13.30;92.60;;;;;;5091701;28;20040;-72
2024/02/28 07:18:37;;;;;;;25.27;14.82;;;13.40;92.40;;;;;;5099574;28;20031;-72
2024/02/28 07:21:06;;;;;;;24.90;15.45;;;13.50;92.00;;;;;;5072887;28;20113;-72
2024/02/28 07:23:33;;;;;;;25.90;14.82;;;13.70;91.80;;;;;;5087358;28;20448;-72
2024/02/28 07:26:02;;;;;;;23.40;13.77;;;13.70;91.60;;;;;;5089915;28;20106;-72
2024/02/28 07:28:42;;;;;;;22.90;13.13;;;13.60;91.90;;;;;;5091920;28;20432;-72
2024/02/28 07:31:19;;;;;;;24.98;13.43;;;13.60;92.20;;;;;;5092407;28;20032;-73
2024/02/28 07:33:50;;;;;;;21.52;12.55;;;13.70;92.10;;;;;;5092273;28;20040;-72
2024/02/28 07:36:18;;;;;;;20.02;12.38;;;13.80;92.00;;;;;;5057002;28;20051;-72
2024/02/28 07:38:46;;;;;;;20.55;13.98;;;13.70;92.10;;;;;;5091733;28;20032;-73
2024/02/28 07:41:14;;;;;;;20.42;13.60;;;13.70;92.40;;;;;;5094034;28;20047;-73
2024/02/28 07:43:45;;;;;;;17.92;12.50;;;13.80;92.20;;;;;;5081217;28;20042;-72
2024/02/28 07:46:12;;;;;;;24.30;12.15;;;14.00;92.00;;;;;;5091844;28;20050;-72
2024/02/28 07:48:39;;;;;;;17.83;11.13;;;14.20;92.00;;;;;;5092636;28;20033;-71
2024/02/28 07:51:10;;;;;;;18.50;11.75;;;14.50;91.80;;;;;;5079305;28;20048;-73
2024/02/28 07:53:37;;;;;;;20.05;12.15;;;14.60;91.50;;;;;;5098224;28;20044;-73
2024/02/28 07:56:18;;;;;;;19.45;10.85;;;14.60;91.40;;;;;;5082708;28;20059;-73
2024/02/28 07:58:46;;;;;;;13.82;10.82;;;14.60;91.50;;;;;;5109728;28;20038;-73
2024/02/28 08:01:13;;;;;;;16.25;10.27;;;14.70;91.70;;;;;;5091882;28;20469;-73
2024/02/28 08:03:41;;;;;;;21.95;11.35;;;14.60;91.70;;;;;;5087508;28;20035;-71
2024/02/28 08:06:09;;;;;;;17.23;11.63;;;14.50;91.70;;;;;;5107603;28;20039;-73
2024/02/28 08:08:36;;;;;;;19.95;11.27;;;14.70;91.70;;;;;;5106377;28;20040;-70
2024/02/28 08:11:04;;;;;;;19.08;11.52;;;14.60;91.70;;;;;;5101069;28;20045;-72
2024/02/28 08:13:32;;;;;;;15.05;10.68;;;14.50;91.70;;;;;;5109246;28;20086;-73
2024/02/28 08:16:00;;;;;;;15.57;11.15;;;14.60;91.90;;;;;;5072225;28;20091;-74
2024/02/28 08:18:28;;;;;;;19.42;11.63;;;14.70;91.90;;;;;;5107364;28;20062;-74
2024/02/28 08:20:57;;;;;;;19.20;11.48;;;14.70;91.60;;;;;;5108902;28;20040;-73
2024/02/28 08:23:26;;;;;;;15.57;11.13;;;14.60;91.80;;;;;;5088240;28;20039;-73
2024/02/28 08:25:54;;;;;;;18.58;10.82;;;14.60;91.80;;;;;;5073145;28;20044;-72
2024/02/28 08:28:21;;;;;;;17.67;11.13;;;14.70;91.70;;;;;;5092525;28;20216;-73
2024/02/28 08:30:49;;;;;;;20.50;12.25;;;14.80;91.60;;;;;;5088090;28;20040;-74
2024/02/28 08:33:16;;;;;;;17.08;11.38;;;15.00;91.60;;;;;;5105210;28;20122;-72
2024/02/28 08:35:51;;;;;;;20.15;12.07;;;14.90;91.50;;;;;;5110337;28;20039;-73
2024/02/28 08:38:19;;;;;;;20.17;14.70;;;15.00;91.30;;;;;;5102514;28;20103;-74
2024/02/28 08:40:46;;;;;;;17.77;11.75;;;15.20;91.40;;;;;;5075619;28;20035;-73
2024/02/28 08:43:13;;;;;;;20.80;11.80;;;15.30;90.90;;;;;;5091478;28;20035;-74
2024/02/28 08:45:42;;;;;;;23.02;11.38;;;15.30;90.70;;;;;;5106508;28;20035;-72
2024/02/28 08:48:11;;;;;;;20.83;11.95;;;15.40;90.70;;;;;;5109870;28;20048;-72
2024/02/28 08:50:39;;;;;;;19.27;10.75;;;15.30;90.80;;;;;;5106941;28;20065;-73
2024/02/28 08:53:07;;;;;;;21.77;10.80;;;15.60;90.60;;;;;;5109074;28;20465;-72
2024/02/28 08:55:35;;;;;;;21.95;11.18;;;16.00;90.20;;;;;;5103628;28;20114;-75
2024/02/28 08:58:02;;;;;;;17.10;11.13;;;16.20;89.30;;;;;;5106438;28;20035;-77
2024/02/28 09:00:30;;;;;;;17.27;10.57;;;16.00;88.90;;;;;;5110203;28;20039;-74
2024/02/28 09:02:58;;;;;;;14.30;10.18;;;16.00;89.10;;;;;;5104490;28;20108;-73
2024/02/28 09:05:25;;;;;;;12.68;8.77;;;15.70;89.40;;;;;;5088745;28;20032;-74
2024/02/28 09:07:54;;;;;;;16.20;9.20;;;15.80;88.70;;;;;;5108780;28;20044;-75
2024/02/28 09:10:24;;;;;;;18.75;8.57;;;15.90;87.70;;;;;;5092488;28;20036;-76
2024/02/28 09:12:52;;;;;;;13.07;8.82;;;16.00;87.20;;;;;;5105542;28;20044;-75
2024/02/28 09:15:19;;;;;;;14.00;9.02;;;16.00;86.90;;;;;;5109032;28;20032;-74
2024/02/28 09:17:47;;;;;;;13.45;8.45;;;15.90;87.80;;;;;;5102591;28;20118;-75
2024/02/28 09:20:15;;;;;;;13.02;8.77;;;16.10;87.20;;;;;;5106694;28;20071;-72
2024/02/28 09:22:42;;;;;;;15.73;8.50;;;16.30;86.80;;;;;;5105865;28;20401;-73
2024/02/28 09:25:10;;;;;;;12.63;8.93;;;16.30;86.50;;;;;;5109242;28;20093;-72
2024/02/28 09:27:38;;;;;;;12.93;8.60;;;16.40;86.40;;;;;;5102735;28;20036;-74
2024/02/28 09:30:06;;;;;;;16.02;8.88;;;16.50;86.30;;;;;;5089760;28;20418;-75
2024/02/28 09:32:35;;;;;;;14.48;9.30;;;16.50;85.70;;;;;;5108455;28;20050;-73
2024/02/28 09:35:04;;;;;;;14.90;9.13;;;16.60;86.00;;;;;;5089865;28;20040;-73
2024/02/28 09:37:33;;;;;;;11.60;6.35;;;16.40;86.10;;;;;;5091166;28;20039;-73
2024/02/28 09:40:02;;;;;;;13.45;5.97;;;16.40;84.70;;;;;;5087552;28;20123;-74
2024/02/28 09:42:31;;;;;;;7.53;5.22;;;16.50;83.90;;;;;;5081817;28;20051;-74
2024/02/28 09:45:01;;;;;;;9.00;5.20;;;16.50;83.90;;;;;;5083693;28;20437;-74
2024/02/28 09:47:28;;;;;;;9.53;6.10;;;16.20;84.30;;;;;;5094942;28;20031;-74
2024/02/28 09:50:01;;;;;;;7.78;5.65;;;16.00;84.20;;;;;;5082663;28;20047;-72
2024/02/28 09:52:29;;;;;;;9.15;5.57;;;15.80;84.60;;;;;;5093663;28;20078;-74
2024/02/28 09:54:56;;;;;;;9.50;5.72;;;15.70;85.60;;;;;;5077996;28;20227;-73
2024/02/28 09:57:28;;;;;;;10.20;5.38;;;15.80;85.40;;;;;;5110005;28;20081;-72
2024/02/28 09:59:59;;;;;;;10.30;5.90;;;15.60;85.60;;;;;;5091787;28;20178;-73
2024/02/28 10:02:28;;;;;;;10.73;5.80;;;15.90;85.00;;;;;;5095108;28;20441;-73
2024/02/28 10:04:58;;;;;;;11.20;6.75;;;16.30;84.70;;;;;;5105620;28;20039;-75
2024/02/28 10:07:25;;;;;;;11.55;6.38;;;16.80;83.90;;;;;;5111385;28;20364;-74
2024/02/28 10:09:52;;;;;;;7.32;5.43;;;16.80;83.10;;;;;;5112145;28;20055;-72
2024/02/28 10:12:20;;;;;;;7.13;5.25;;;16.40;83.60;;;;;;5109559;28;20096;-73
2024/02/28 10:14:51;;;;;;;12.13;5.30;;;16.40;84.00;;;;;;5108167;28;20111;-74
2024/02/28 10:17:18;;;;;;;9.10;5.57;;;16.20;83.50;;;;;;5111851;28;20043;-74
2024/02/28 10:19:47;;;;;;;9.00;5.72;;;16.30;83.80;;;;;;5087813;28;20413;-73
2024/02/28 10:22:14;;;;;;;8.90;5.45;;;16.10;83.90;;;;;;5105508;28;20149;-73
2024/02/28 10:24:41;;;;;;;8.80;5.32;;;16.00;84.10;;;;;;5112438;28;20127;-75
2024/02/28 10:27:09;;;;;;;9.20;5.50;;;16.00;83.90;;;;;;5107470;28;20040;-73
2024/02/28 10:29:36;;;;;;;9.50;6.18;;;16.10;83.80;;;;;;5110692;27;20040;-75
2024/02/28 10:32:05;;;;;;;9.20;5.70;;;16.30;83.50;;;;;;5105155;28;20043;-74
2024/02/28 10:34:34;;;;;;;10.95;6.13;;;16.40;83.40;;;;;;5105476;28;20390;-71
2024/02/28 10:37:04;;;;;;;10.40;5.28;;;17.00;82.60;;;;;;5109296;28;20055;-73
2024/02/28 10:39:35;;;;;;;7.93;4.82;;;17.80;80.50;;;;;;5102680;28;20047;-71
2024/02/28 10:42:04;;;;;;;14.02;5.60;;;18.20;79.30;;;;;;5088430;28;20450;-73
2024/02/28 10:44:34;;;;;;;8.25;4.55;;;18.00;78.60;;;;;;5090888;28;20097;-72
2024/02/28 10:47:02;;;;;;;14.00;5.00;;;17.60;79.60;;;;;;5109242;28;20151;-74
2024/02/28 10:49:30;;;;;;;10.05;5.03;;;17.70;79.70;;;;;;5077346;28;20039;-72
2024/02/28 10:51:59;;;;;;;6.57;4.20;;;17.90;79.30;;;;;;5089582;28;20039;-69
2024/02/28 10:54:30;;;;;;;7.72;4.80;;;17.60;79.30;;;;;;5102784;28;20056;-72
2024/02/28 10:56:57;;;;;;;;;;;17.60;79.60;;;;;;5088172;28;20036;-73
2024/02/28 10:59:28;;;;;;;7.47;4.00;;;17.40;79.70;;;;;;5105541;28;20007;-72
2024/02/28 11:01:55;;;;;;;6.20;4.00;;;17.90;79.20;;;;;;5106220;28;20111;-71
2024/02/28 11:04:24;;;;;;;7.57;3.38;;;17.50;79.90;;;;;;5108640;28;20048;-73
2024/02/28 11:06:55;;;;;;;9.30;3.53;;;17.80;79.50;;;;;;5102727;28;20032;-72
2024/02/28 11:09:25;;;;;;;5.70;3.72;;;17.60;79.90;;;;;;5086133;28;20384;-71
2024/02/28 11:11:55;;;;;;;7.03;3.70;;;17.40;80.40;;;;;;5093163;28;20126;-71
2024/02/28 11:14:26;;;;;;;6.38;3.80;;;16.90;81.80;;;;;;5099169;28;20039;-72
2024/02/28 11:17:02;;;;;;;6.00;3.75;;;16.90;81.80;;;;;;5106110;28;20494;-71
2024/02/28 11:19:33;;;;;;;7.07;3.90;;;16.70;81.90;;;;;;5085718;28;20050;-75
2024/02/28 11:22:04;;;;;;;7.10;4.20;;;17.00;82.00;;;;;;5111455;28;20039;-70
2024/02/28 11:24:39;;;;;;;10.23;3.90;;;17.00;81.90;;;;;;5110258;28;20115;-72
2024/02/28 11:27:07;;;;;;;7.68;3.45;;;16.80;82.30;;;;;;5105284;28;20093;-70
2024/02/28 11:29:34;;;;;;;7.18;3.90;;;16.70;82.20;;;;;;5105821;28;20036;-71
2024/02/28 11:32:03;;;;;;;5.57;3.70;;;16.90;82.30;;;;;;5104156;28;20074;-70
2024/02/28 11:34:30;;;;;;;5.60;3.38;;;16.60;82.40;;;;;;5096444;28;20388;-70
2024/02/28 11:36:58;;;;;;;5.88;4.03;;;16.70;82.80;;;;;;5089470;28;20044;-70
2024/02/28 11:39:26;;;;;;;6.72;3.80;;;16.60;83.10;;;;;;5103898;27;20400;-69
2024/02/28 11:41:55;;;;;;;6.25;4.00;;;16.60;83.40;;;;;;5083156;28;20039;-69
2024/02/28 11:44:23;;;;;;;6.00;3.75;;;16.50;83.70;;;;;;5106257;27;20054;-71
2024/02/28 11:46:52;;;;;;;7.93;4.00;;;16.40;83.60;;;;;;5108769;28;20035;-72
2024/02/28 11:49:25;;;;;;;6.07;3.65;;;16.40;84.20;;;;;;5107141;28;20047;-70
2024/02/28 11:51:55;;;;;;;10.23;4.25;;;16.10;84.40;;;;;;5102177;28;20491;-72
2024/02/28 11:54:23;;;;;;;5.38;3.65;;;16.10;85.30;;;;;;5088607;28;20044;-72
2024/02/28 11:56:50;;;;;;;8.40;4.40;;;15.90;85.40;;;;;;5104983;28;20040;-73
2024/02/28 11:59:22;;;;;;;6.35;4.20;;;15.80;85.80;;;;;;5087546;28;20506;-74
2024/02/28 12:01:52;;;;;;;5.30;3.80;;;15.70;86.00;;;;;;5082503;28;20089;-72
2024/02/28 12:04:19;;;;;;;6.80;4.15;;;15.80;86.20;;;;;;5108446;28;20059;-73
2024/02/28 12:06:46;;;;;;;6.13;4.10;;;15.60;86.20;;;;;;5103878;28;20148;-73
2024/02/28 12:09:14;;;;;;;7.60;4.70;;;15.80;86.40;;;;;;5105471;28;20035;-70
2024/02/28 12:11:53;;;;;;;6.90;4.05;;;15.60;86.30;;;;;;5104161;28;20148;-71
2024/02/28 12:14:21;;;;;;;6.60;4.22;;;15.60;86.70;;;;;;5106793;28;20028;-71
2024/02/28 12:16:48;;;;;;;6.32;4.43;;;15.70;86.60;;;;;;5102852;28;20035;-71
2024/02/28 12:19:18;;;;;;;8.68;4.47;;;15.60;86.80;;;;;;5099887;28;20097;-70
2024/02/28 12:21:46;;;;;;;8.52;4.80;;;15.70;86.90;;;;;;5088427;28;20047;-71
2024/02/28 12:24:13;;;;;;;8.40;4.43;;;15.50;87.40;;;;;;5100474;28;20142;-71
2024/02/28 12:26:44;;;;;;;8.60;4.97;;;15.40;87.30;;;;;;5092407;28;20050;-72
2024/02/28 12:29:11;;;;;;;9.30;4.57;;;15.40;87.90;;;;;;5068655;28;20045;-74
2024/02/28 12:31:39;;;;;;;7.88;4.85;;;15.50;86.90;;;;;;5088983;28;20055;-71
2024/02/28 12:34:07;;;;;;;7.57;4.72;;;15.50;86.50;;;;;;5087361;28;20040;-73
2024/02/28 12:36:35;;;;;;;8.27;5.20;;;15.50;86.90;;;;;;5105896;28;20040;-70
2024/02/28 12:39:02;;;;;;;6.72;4.78;;;15.50;86.80;;;;;;5105250;28;20089;-72
2024/02/28 12:41:30;;;;;;;6.60;4.75;;;15.50;86.60;;;;;;5074988;28;20044;-72